createdAt,value
2023-01-10T00:02:34.254Z,5.40
2023-01-10T00:05:21.753Z,5.38
2023-01-10T00:08:08.131Z,5.35
2023-01-10T00:10:53.895Z,5.36
2023-01-10T00:13:38.977Z,5.35
2023-01-10T00:16:25.200Z,5.32
2023-01-10T00:19:12.654Z,5.35
2023-01-10T00:22:12.443Z,5.37
2023-01-10T00:24:58.697Z,5.37
2023-01-10T00:27:46.722Z,5.39
2023-01-10T00:30:35.130Z,5.38
2023-01-10T00:33:20.848Z,5.36
2023-01-10T00:36:07.552Z,5.37
2023-01-10T00:38:54.883Z,5.30
2023-01-10T00:41:58.196Z,5.32
2023-01-10T00:44:46.728Z,5.29
2023-01-10T00:47:32.635Z,5.29
2023-01-10T00:50:18.580Z,5.29
2023-01-10T00:53:04.452Z,5.24
2023-01-10T00:55:51.381Z,5.26
2023-01-10T00:58:37.189Z,5.24
2023-01-10T01:01:23.127Z,5.28
2023-01-10T01:04:08.966Z,5.29
2023-01-10T01:06:54.932Z,5.29
2023-01-10T01:10:00.655Z,5.33
2023-01-10T01:12:47.713Z,5.36
2023-01-10T01:15:34.544Z,5.36
2023-01-10T01:18:21.694Z,5.38
2023-01-10T01:21:08.325Z,5.36
2023-01-10T01:23:56.598Z,5.38
2023-01-10T01:26:42.785Z,5.40
2023-01-10T01:29:42.402Z,5.39
2023-01-10T01:32:29.419Z,5.45
2023-01-10T01:35:15.588Z,5.45
2023-01-10T01:38:01.585Z,5.46
2023-01-10T01:40:47.416Z,5.45
2023-01-10T01:43:53.217Z,5.47
2023-01-10T01:46:40.600Z,5.47
2023-01-10T01:49:26.245Z,5.45
2023-01-10T01:52:12.837Z,5.44
2023-01-10T01:54:59.260Z,5.46
2023-01-10T01:57:45.308Z,5.49
2023-01-10T02:00:31.205Z,5.47
2023-01-10T02:03:18.983Z,5.49
2023-01-10T02:06:05.186Z,5.51
2023-01-10T02:08:52.735Z,5.51
2023-01-10T02:11:38.421Z,5.51
2023-01-10T02:14:24.463Z,5.55
2023-01-10T02:17:10.575Z,5.51
2023-01-10T02:19:58.621Z,5.51
2023-01-10T02:23:08.947Z,5.53
2023-01-10T02:26:19.129Z,5.52
2023-01-10T02:29:09.825Z,5.49
2023-01-10T02:32:08.261Z,5.46
2023-01-10T02:34:57.505Z,5.50
2023-01-10T02:37:46.304Z,5.50
2023-01-10T02:40:35.143Z,5.51
2023-01-10T02:43:21.952Z,5.50
2023-01-10T02:46:08.630Z,5.48
2023-01-10T02:48:56.152Z,5.47
2023-01-10T02:51:41.887Z,5.47
2023-01-10T02:54:30.509Z,5.50
2023-01-10T02:57:20.283Z,5.52
2023-01-10T03:00:09.569Z,5.47
2023-01-10T03:03:02.806Z,5.50
2023-01-10T03:05:52.418Z,5.49
2023-01-10T03:08:38.769Z,5.46
2023-01-10T03:11:39.928Z,5.45
2023-01-10T03:14:26.991Z,5.45
2023-01-10T03:17:12.725Z,5.44
2023-01-10T03:19:59.905Z,5.42
2023-01-10T03:22:47.282Z,5.39
2023-01-10T03:25:34.170Z,5.40
2023-01-10T03:28:21.549Z,5.38
2023-01-10T03:31:07.965Z,5.40
2023-01-10T03:33:53.979Z,5.40
2023-01-10T03:36:41.945Z,5.38
2023-01-10T03:39:31.908Z,5.36
2023-01-10T03:42:22.482Z,5.36
2023-01-10T03:45:08.885Z,5.36
2023-01-10T03:47:54.609Z,5.36
2023-01-10T03:50:40.576Z,5.36
2023-01-10T03:53:26.299Z,5.37
2023-01-10T03:56:15.173Z,5.36
2023-01-10T03:59:01.304Z,5.36
2023-01-10T04:01:47.105Z,5.37
2023-01-10T04:04:33.167Z,5.35
2023-01-10T04:07:18.846Z,5.36
2023-01-10T04:10:04.695Z,5.35
2023-01-10T04:12:51.939Z,5.35
2023-01-10T04:15:37.944Z,5.35
2023-01-10T04:18:23.793Z,5.34
2023-01-10T04:21:09.751Z,5.37
2023-01-10T04:23:55.520Z,5.32
2023-01-10T04:26:41.370Z,5.33
2023-01-10T04:29:28.573Z,5.32
2023-01-10T04:32:14.261Z,5.32
2023-01-10T04:35:00.244Z,5.32
2023-01-10T04:37:46.341Z,5.32
2023-01-10T04:40:32.126Z,5.28
2023-01-10T04:43:17.874Z,5.29
2023-01-10T04:46:04.993Z,5.23
2023-01-10T04:48:50.962Z,5.18
2023-01-10T04:51:36.933Z,5.12
2023-01-10T04:54:23.115Z,5.09
2023-01-10T04:57:08.903Z,5.02
2023-01-10T04:59:54.842Z,4.96
2023-01-10T05:02:44.195Z,4.88
2023-01-10T05:05:30.412Z,4.87
2023-01-10T05:08:16.301Z,4.78
2023-01-10T05:11:02.203Z,4.73
2023-01-10T05:13:48.332Z,4.69
2023-01-10T05:16:35.085Z,4.65
2023-01-10T05:19:22.125Z,4.59
2023-01-10T05:22:07.853Z,4.52
2023-01-10T05:24:54.719Z,4.44
2023-01-10T05:27:41.783Z,4.44
2023-01-10T05:30:28.020Z,4.35
2023-01-10T05:33:14.019Z,4.32
2023-01-10T05:36:02.907Z,4.27
2023-01-10T05:38:48.630Z,4.29
2023-01-10T05:41:34.484Z,4.27
2023-01-10T05:44:20.145Z,4.24
2023-01-10T05:47:06.040Z,4.21
2023-01-10T05:49:51.887Z,4.18
2023-01-10T05:52:39.180Z,4.15
2023-01-10T05:55:25.032Z,4.16
2023-01-10T05:58:11.474Z,4.11
2023-01-10T06:00:57.914Z,4.10
2023-01-10T06:03:43.971Z,4.08
2023-01-10T06:06:29.771Z,4.03
2023-01-10T06:09:16.888Z,4.00
2023-01-10T06:12:03.025Z,3.98
2023-01-10T06:14:49.206Z,3.94
2023-01-10T06:17:35.179Z,3.94
2023-01-10T06:20:21.114Z,3.94
2023-01-10T06:23:06.847Z,3.90
2023-01-10T06:25:54.128Z,3.88
2023-01-10T06:28:41.004Z,3.87
2023-01-10T06:31:26.932Z,3.87
2023-01-10T06:34:13.446Z,3.88
2023-01-10T06:36:59.305Z,3.86
2023-01-10T06:39:46.303Z,3.84
2023-01-10T06:42:33.690Z,3.83
2023-01-10T06:45:19.483Z,3.82
2023-01-10T06:48:05.650Z,3.83
2023-01-10T06:50:51.796Z,3.86
2023-01-10T06:53:37.504Z,3.87
2023-01-10T06:56:23.302Z,3.89
2023-01-10T06:59:11.166Z,3.92
2023-01-10T07:01:56.900Z,3.95
2023-01-10T07:04:43.117Z,3.99
2023-01-10T07:07:29.203Z,4.01
2023-01-10T07:10:15.280Z,4.04
2023-01-10T07:13:01.529Z,4.08
2023-01-10T07:15:48.740Z,4.12
2023-01-10T07:18:34.658Z,4.16
2023-01-10T07:21:20.737Z,4.18
2023-01-10T07:24:07.524Z,4.22
2023-01-10T07:26:55.258Z,4.27
2023-01-10T07:29:41.384Z,4.28
2023-01-10T07:32:28.425Z,4.31
2023-01-10T07:35:14.122Z,4.37
2023-01-10T07:38:00.176Z,4.41
2023-01-10T07:40:46.022Z,4.46
2023-01-10T07:43:31.788Z,4.50
2023-01-10T07:46:17.665Z,4.53
2023-01-10T07:49:05.777Z,4.58
2023-01-10T07:51:51.544Z,4.61
2023-01-10T07:54:37.283Z,4.62
2023-01-10T07:57:22.937Z,4.68
2023-01-10T08:00:09.552Z,4.72
2023-01-10T08:02:55.809Z,4.77
2023-01-10T08:05:43.368Z,4.79
2023-01-10T08:08:29.412Z,4.83
2023-01-10T08:11:15.484Z,4.88
2023-01-10T08:14:01.365Z,4.93
2023-01-10T08:16:47.173Z,4.96
2023-01-10T08:19:32.914Z,4.99
2023-01-10T08:22:22.982Z,5.05
2023-01-10T08:25:09.270Z,5.09
2023-01-10T08:27:55.194Z,5.12
2023-01-10T08:30:41.186Z,5.14
2023-01-10T08:33:27.366Z,5.19
2023-01-10T08:36:17.673Z,5.22
2023-01-10T08:39:04.873Z,5.28
2023-01-10T08:41:50.654Z,5.27
2023-01-10T08:44:37.047Z,5.29
2023-01-10T08:47:23.035Z,5.31
2023-01-10T08:50:09.489Z,5.28
2023-01-10T08:52:55.471Z,5.31
2023-01-10T08:55:42.750Z,5.33
2023-01-10T08:58:28.673Z,5.35
2023-01-10T09:01:14.836Z,5.36
2023-01-10T09:04:00.694Z,5.37
2023-01-10T09:06:46.656Z,5.39
2023-01-10T09:09:32.582Z,5.43
2023-01-10T09:12:37.336Z,5.49
2023-01-10T09:15:24.203Z,5.53
2023-01-10T09:18:11.780Z,5.59
2023-01-10T09:20:57.600Z,5.62
2023-01-10T09:23:44.286Z,5.68
2023-01-10T09:26:30.306Z,5.70
2023-01-10T09:29:17.604Z,5.68
2023-01-10T09:32:03.464Z,5.73
2023-01-10T09:34:49.238Z,5.77
2023-01-10T09:37:35.064Z,5.80
2023-01-10T09:40:23.410Z,5.85
2023-01-10T09:43:11.498Z,5.87
2023-01-10T09:45:59.717Z,5.90
2023-01-10T09:48:46.248Z,5.98
2023-01-10T09:51:35.495Z,6.03
2023-01-10T09:54:24.610Z,6.09
2023-01-10T09:57:11.823Z,6.15
2023-01-10T09:59:57.772Z,6.18
2023-01-10T10:02:45.294Z,6.23
2023-01-10T10:05:31.302Z,6.27
2023-01-10T10:08:17.975Z,6.33
2023-01-10T10:11:10.218Z,6.38
2023-01-10T10:13:57.110Z,6.45
2023-01-10T10:16:45.959Z,6.47
2023-01-10T10:19:35.176Z,6.59
2023-01-10T10:22:22.525Z,6.60
2023-01-10T10:25:10.873Z,6.70
2023-01-10T10:28:00.970Z,6.71
2023-01-10T10:30:49.050Z,6.73
2023-01-10T10:33:41.967Z,6.72
2023-01-10T10:36:31.591Z,6.76
2023-01-10T10:39:18.510Z,6.68
2023-01-10T10:42:04.816Z,6.63
2023-01-10T10:44:52.410Z,6.66
2023-01-10T10:47:38.805Z,6.65
2023-01-10T10:50:25.456Z,6.60
2023-01-10T10:53:12.725Z,6.60
2023-01-10T10:55:58.425Z,6.52
2023-01-10T10:58:45.149Z,6.58
2023-01-10T11:01:31.157Z,6.54
2023-01-10T11:04:18.285Z,6.47
2023-01-10T11:07:04.385Z,6.51
2023-01-10T11:09:54.971Z,6.50
2023-01-10T11:12:41.987Z,6.46
2023-01-10T11:15:40.961Z,6.51
2023-01-10T11:18:27.703Z,6.55
2023-01-10T11:21:13.936Z,6.56
2023-01-10T11:23:59.970Z,6.62
2023-01-10T11:26:47.004Z,6.63
2023-01-10T11:29:35.202Z,6.68
2023-01-10T11:32:21.549Z,6.72
2023-01-10T11:35:08.008Z,6.77
2023-01-10T11:38:00.575Z,6.81
2023-01-10T11:40:54.027Z,6.84
2023-01-10T11:43:41.673Z,6.81
2023-01-10T11:46:27.781Z,6.81
2023-01-10T11:49:19.543Z,6.88
2023-01-10T11:52:06.355Z,6.92
2023-01-10T11:54:54.282Z,6.90
2023-01-10T11:57:40.085Z,6.90
2023-01-10T12:00:32.786Z,6.88
2023-01-10T12:03:19.393Z,6.96
2023-01-10T12:06:06.776Z,6.90
2023-01-10T12:08:56.039Z,7.00
2023-01-10T12:11:42.117Z,6.97
2023-01-10T12:14:27.753Z,7.00
2023-01-10T12:17:17.208Z,7.04
2023-01-10T12:20:04.423Z,7.09
2023-01-10T12:22:51.101Z,7.14
2023-01-10T12:25:37.609Z,7.13
2023-01-10T12:28:24.206Z,7.22
2023-01-10T12:31:11.892Z,7.24
2023-01-10T12:34:02.134Z,7.32
2023-01-10T12:36:50.721Z,7.36
2023-01-10T12:39:37.928Z,7.39
2023-01-10T12:42:43.088Z,7.33
2023-01-10T12:45:30.205Z,7.33
2023-01-10T12:48:18.677Z,7.33
2023-01-10T12:51:07.226Z,7.33
2023-01-10T12:53:54.176Z,7.26
2023-01-10T12:56:40.023Z,7.30
2023-01-10T12:59:36.948Z,7.29
2023-01-10T13:02:24.320Z,7.30
2023-01-10T13:05:14.876Z,7.30
2023-01-10T13:08:04.583Z,7.29
2023-01-10T13:10:50.831Z,7.32
2023-01-10T13:13:37.107Z,7.30
2023-01-10T13:16:33.997Z,7.31
2023-01-10T13:19:26.888Z,7.31
2023-01-10T13:22:13.668Z,7.27
2023-01-10T13:25:01.746Z,7.28
2023-01-10T13:27:47.510Z,7.25
2023-01-10T13:30:34.018Z,7.25
2023-01-10T13:33:20.736Z,7.19
2023-01-10T13:36:10.964Z,7.19
2023-01-10T13:38:57.049Z,7.17
2023-01-10T13:42:15.277Z,7.13
2023-01-10T13:45:19.207Z,7.13
2023-01-10T13:48:32.543Z,7.11
2023-01-10T13:51:19.644Z,7.09
2023-01-10T13:54:05.955Z,7.09
2023-01-10T13:56:52.023Z,7.08
2023-01-10T14:00:14.491Z,7.07
2023-01-10T14:03:01.783Z,7.03
2023-01-10T14:05:48.631Z,6.99
2023-01-10T14:08:34.374Z,6.99
2023-01-10T14:11:20.188Z,6.98
2023-01-10T14:14:05.993Z,6.92
2023-01-10T14:16:52.134Z,6.95
2023-01-10T14:19:39.445Z,6.92
2023-01-10T14:22:30.847Z,6.90
2023-01-10T14:25:18.634Z,6.89
2023-01-10T14:28:04.977Z,6.85
2023-01-10T14:30:55.409Z,6.83
2023-01-10T14:33:42.854Z,6.80
2023-01-10T14:36:30.709Z,6.72
2023-01-10T14:39:16.927Z,6.70
2023-01-10T14:42:02.954Z,6.66
2023-01-10T14:44:50.059Z,6.63
2023-01-10T14:47:38.261Z,6.59
2023-01-10T14:50:34.764Z,6.56
2023-01-10T14:53:28.912Z,6.53
2023-01-10T14:56:19.194Z,6.52
2023-01-10T14:59:16.751Z,6.48
2023-01-10T15:02:03.372Z,6.47
2023-01-10T15:04:51.056Z,6.41
2023-01-10T15:07:38.152Z,6.35
2023-01-10T15:10:25.630Z,6.32
2023-01-10T15:13:13.379Z,6.29
2023-01-10T15:15:59.613Z,6.26
2023-01-10T15:18:45.622Z,6.23
2023-01-10T15:21:31.470Z,6.19
2023-01-10T15:24:32.119Z,6.18
2023-01-10T15:27:20.195Z,6.12
2023-01-10T15:30:08.738Z,6.13
2023-01-10T15:32:55.312Z,6.10
2023-01-10T15:35:43.334Z,6.10
2023-01-10T15:38:30.677Z,6.05
2023-01-10T15:41:18.054Z,6.04
2023-01-10T15:44:19.098Z,5.99
2023-01-10T15:47:06.822Z,5.94
2023-01-10T15:49:53.497Z,5.93
2023-01-10T15:52:47.587Z,5.91
2023-01-10T15:55:37.770Z,5.89
2023-01-10T15:58:24.872Z,5.86
2023-01-10T16:01:13.797Z,5.83
2023-01-10T16:04:01.807Z,5.83
2023-01-10T16:06:47.611Z,5.81
2023-01-10T16:09:33.399Z,5.78
2023-01-10T16:12:44.094Z,5.81
2023-01-10T16:15:30.939Z,5.80
2023-01-10T16:18:17.145Z,5.82
2023-01-10T16:21:04.247Z,5.81
2023-01-10T16:23:50.525Z,5.77
2023-01-10T16:26:36.865Z,5.75
2023-01-10T16:29:22.810Z,5.75
2023-01-10T16:32:12.263Z,5.73
2023-01-10T16:34:58.216Z,5.73
2023-01-10T16:37:45.221Z,5.73
2023-01-10T16:40:36.448Z,5.75
2023-01-10T16:43:21.844Z,5.74
2023-01-10T16:46:07.834Z,5.74
2023-01-10T16:48:54.831Z,5.78
2023-01-10T16:51:40.802Z,5.76
2023-01-10T16:54:28.296Z,5.74
2023-01-10T16:57:16.814Z,5.72
2023-01-10T17:00:03.065Z,5.73
2023-01-10T17:02:49.375Z,5.72
2023-01-10T17:05:35.616Z,5.74
2023-01-10T17:08:21.848Z,5.72
2023-01-10T17:11:11.222Z,5.70
2023-01-10T17:13:56.971Z,5.71
2023-01-10T17:16:42.671Z,5.71
2023-01-10T17:19:28.493Z,5.72
2023-01-10T17:22:14.163Z,5.71
2023-01-10T17:24:59.945Z,5.73
2023-01-10T17:27:47.046Z,5.73
2023-01-10T17:30:32.762Z,5.75
2023-01-10T17:33:18.621Z,5.76
2023-01-10T17:36:04.558Z,5.76
2023-01-10T17:38:50.294Z,5.75
2023-01-10T17:41:36.260Z,5.76
2023-01-10T17:44:23.305Z,5.75
2023-01-10T17:47:10.089Z,5.78
2023-01-10T17:49:55.973Z,5.78
2023-01-10T17:52:41.630Z,5.74
2023-01-10T17:55:27.657Z,5.77
2023-01-10T17:58:13.763Z,5.76
2023-01-10T18:01:01.181Z,5.79
2023-01-10T18:03:47.470Z,5.76
2023-01-10T18:06:33.270Z,5.78
2023-01-10T18:09:18.946Z,5.79
2023-01-10T18:12:05.097Z,5.80
2023-01-10T18:14:51.309Z,5.80
2023-01-10T18:17:38.757Z,5.79
2023-01-10T18:20:24.859Z,5.80
2023-01-10T18:23:25.407Z,5.79
2023-01-10T18:26:12.512Z,5.80
2023-01-10T18:28:59.560Z,5.81
2023-01-10T18:31:45.296Z,5.80
2023-01-10T18:34:32.560Z,5.79
2023-01-10T18:37:19.010Z,5.81
2023-01-10T18:40:05.482Z,5.82
2023-01-10T18:42:53.631Z,5.83
2023-01-10T18:45:39.570Z,5.81
2023-01-10T18:48:26.011Z,5.82
2023-01-10T18:51:14.059Z,5.82
2023-01-10T18:54:00.158Z,5.83
2023-01-10T18:56:46.025Z,5.83
2023-01-10T18:59:31.791Z,5.81
2023-01-10T19:02:17.829Z,5.78
2023-01-10T19:05:04.646Z,5.78
2023-01-10T19:07:52.057Z,5.74
2023-01-10T19:11:00.340Z,5.75
2023-01-10T19:13:43.973Z,5.72
2023-01-10T19:16:32.082Z,5.71
2023-01-10T19:19:18.289Z,5.69
2023-01-10T19:22:04.138Z,5.67
2023-01-10T19:24:51.665Z,5.63
2023-01-10T19:27:37.748Z,5.60
2023-01-10T19:30:23.465Z,5.54
2023-01-10T19:33:09.323Z,5.48
2023-01-10T19:35:56.007Z,5.48
2023-01-10T19:38:41.808Z,5.44
2023-01-10T19:41:29.727Z,5.37
2023-01-10T19:44:16.375Z,5.30
2023-01-10T19:47:02.034Z,5.24
2023-01-10T19:49:47.748Z,5.22
2023-01-10T19:52:33.525Z,5.25
2023-01-10T19:55:19.250Z,5.22
2023-01-10T19:58:06.379Z,5.18
2023-01-10T20:00:52.124Z,5.20
2023-01-10T20:03:40.818Z,5.18
2023-01-10T20:06:27.413Z,5.20
2023-01-10T20:09:14.422Z,5.20
2023-01-10T20:12:00.233Z,5.18
2023-01-10T20:14:47.805Z,5.19
2023-01-10T20:17:34.222Z,5.19
2023-01-10T20:20:20.621Z,5.21
2023-01-10T20:23:07.058Z,5.25
2023-01-10T20:25:58.155Z,5.25
2023-01-10T20:28:44.992Z,5.28
2023-01-10T20:31:32.742Z,5.30
2023-01-10T20:34:18.829Z,5.28
2023-01-10T20:37:05.070Z,5.28
2023-01-10T20:39:50.865Z,5.26
2023-01-10T20:42:36.662Z,5.23
2023-01-10T20:45:22.463Z,5.23
2023-01-10T20:48:10.099Z,5.17
2023-01-10T20:50:56.029Z,5.20
2023-01-10T20:53:41.739Z,5.16
2023-01-10T20:56:28.170Z,5.12
2023-01-10T20:59:14.263Z,5.11
2023-01-10T21:02:00.597Z,5.10
2023-01-10T21:04:50.373Z,5.12
2023-01-10T21:07:36.464Z,5.11
2023-01-10T21:10:22.193Z,5.11
2023-01-10T21:13:08.084Z,5.10
2023-01-10T21:15:54.741Z,5.08
2023-01-10T21:18:41.218Z,5.06
2023-01-10T21:21:28.360Z,5.07
2023-01-10T21:24:15.656Z,5.05
2023-01-10T21:27:01.241Z,5.07
2023-01-10T21:29:47.154Z,5.07
2023-01-10T21:32:34.001Z,5.12
2023-01-10T21:35:19.839Z,5.11
2023-01-10T21:38:06.789Z,5.19
2023-01-10T21:40:52.623Z,5.16
2023-01-10T21:43:38.698Z,5.19
2023-01-10T21:46:24.938Z,5.18
2023-01-10T21:49:11.204Z,5.18
2023-01-10T21:51:57.743Z,5.20
2023-01-10T21:54:45.109Z,5.20
2023-01-10T21:57:30.874Z,5.26
2023-01-10T22:00:17.163Z,5.28
2023-01-10T22:03:03.513Z,5.25
2023-01-10T22:05:49.489Z,5.28
2023-01-10T22:08:35.868Z,5.32
2023-01-10T22:11:23.127Z,5.32
2023-01-10T22:14:08.858Z,5.35
2023-01-10T22:16:54.894Z,5.37
2023-01-10T22:19:41.000Z,5.37
2023-01-10T22:22:27.045Z,5.39
2023-01-10T22:25:12.948Z,5.39
2023-01-10T22:28:00.057Z,5.40
2023-01-10T22:30:45.713Z,5.42
2023-01-10T22:33:32.294Z,5.47
2023-01-10T22:36:18.911Z,5.44
2023-01-10T22:39:06.515Z,5.45
2023-01-10T22:41:53.377Z,5.48
2023-01-10T22:44:40.347Z,5.52
2023-01-10T22:47:26.073Z,5.51
2023-01-10T22:50:12.044Z,5.51
2023-01-10T22:52:57.701Z,5.54
2023-01-10T22:55:43.509Z,5.54
2023-01-10T22:58:29.404Z,5.57
2023-01-10T23:01:17.374Z,5.60
2023-01-10T23:04:03.469Z,5.62
2023-01-10T23:06:50.111Z,5.64
2023-01-10T23:09:36.043Z,5.65
2023-01-10T23:12:21.925Z,5.65
2023-01-10T23:15:07.982Z,5.68
2023-01-10T23:17:55.766Z,5.69
2023-01-10T23:20:41.566Z,5.71
2023-01-10T23:23:27.416Z,5.70
2023-01-10T23:26:13.535Z,5.74
2023-01-10T23:28:59.603Z,5.75
2023-01-10T23:31:49.491Z,5.78
2023-01-10T23:34:37.070Z,5.80
2023-01-10T23:37:22.849Z,5.78
2023-01-10T23:40:09.443Z,5.77
2023-01-10T23:42:55.363Z,5.80
2023-01-10T23:45:42.434Z,5.82
2023-01-10T23:48:28.270Z,5.84
2023-01-10T23:51:15.249Z,5.87
2023-01-10T23:54:01.333Z,5.88
2023-01-10T23:56:47.360Z,5.91
2023-01-10T23:59:33.299Z,5.96
